Terminal Aerodrome Forecast
Issued by NWS Atlanta, GA

Current Version | Previous Version | Text Only | Print | Product List | Glossary On
Versions: 1 2 3 4 5 6 7 8 9 10 11 12 13 14 15 16 17 18 19 20 21
000
FTUS42 KFFC 132300 RRA
TAFCSG
TAF
KCSG 132347Z 1400/1424 22005KT P6SM FEW060
     FM140900 22004KT P6SM BKN250
     FM141200 24004KT P6SM SCT050
     FM141700 25008KT P6SM SCT050=

USA.gov is the U.S. government's official web portal to all federal, state and local government web resources and services.